sensor_id;sensor_type;location;lat;lon;timestamp;P1;durP1;ratioP1;P2;durP2;ratioP2
28920;SDS011;16035;53.594;9.952;2023-08-20T00:00:24;9.98;;;3.63;;
28920;SDS011;16035;53.594;9.952;2023-08-20T00:02:25;7.70;;;3.93;;
28920;SDS011;16035;53.594;9.952;2023-08-20T00:04:29;9.70;;;3.60;;
28920;SDS011;16035;53.594;9.952;2023-08-20T00:06:31;8.75;;;3.40;;
28920;SDS011;16035;53.594;9.952;2023-08-20T00:08:32;7.15;;;3.67;;
28920;SDS011;16035;53.594;9.952;2023-08-20T00:10:32;6.17;;;3.83;;
28920;SDS011;16035;53.594;9.952;2023-08-20T00:12:33;9.15;;;4.00;;
28920;SDS011;16035;53.594;9.952;2023-08-20T00:17:05;9.70;;;4.95;;
28920;SDS011;16035;53.594;9.952;2023-08-20T00:19:05;12.40;;;4.45;;
28920;SDS011;16035;53.594;9.952;2023-08-20T00:21:07;7.63;;;3.95;;
28920;SDS011;16035;53.594;9.952;2023-08-20T00:25:08;15.57;;;4.10;;
28920;SDS011;16035;53.594;9.952;2023-08-20T00:27:09;13.25;;;4.10;;
28920;SDS011;16035;53.594;9.952;2023-08-20T00:29:10;11.90;;;4.67;;
28920;SDS011;16035;53.594;9.952;2023-08-20T00:31:10;9.60;;;4.10;;
28920;SDS011;16035;53.594;9.952;2023-08-20T00:33:10;6.83;;;3.57;;
28920;SDS011;16035;53.594;9.952;2023-08-20T00:35:11;8.10;;;3.60;;
28920;SDS011;16035;53.594;9.952;2023-08-20T00:37:11;8.03;;;3.33;;
28920;SDS011;16035;53.594;9.952;2023-08-20T00:39:12;11.73;;;3.90;;
28920;SDS011;16035;53.594;9.952;2023-08-20T00:41:12;6.80;;;3.40;;
28920;SDS011;16035;53.594;9.952;2023-08-20T00:43:13;7.50;;;3.30;;
28920;SDS011;16035;53.594;9.952;2023-08-20T00:45:13;9.30;;;3.67;;
28920;SDS011;16035;53.594;9.952;2023-08-20T00:47:13;6.33;;;3.73;;
28920;SDS011;16035;53.594;9.952;2023-08-20T00:49:14;5.18;;;3.53;;
28920;SDS011;16035;53.594;9.952;2023-08-20T00:51:15;10.18;;;4.22;;
28920;SDS011;16035;53.594;9.952;2023-08-20T00:53:15;12.60;;;4.77;;
28920;SDS011;16035;53.594;9.952;2023-08-20T00:55:15;9.50;;;4.23;;
28920;SDS011;16035;53.594;9.952;2023-08-20T00:57:20;8.27;;;4.70;;
28920;SDS011;16035;53.594;9.952;2023-08-20T00:59:22;12.77;;;3.83;;
28920;SDS011;16035;53.594;9.952;2023-08-20T01:01:23;10.80;;;3.87;;
28920;SDS011;16035;53.594;9.952;2023-08-20T01:03:23;9.07;;;3.90;;
28920;SDS011;16035;53.594;9.952;2023-08-20T01:05:23;10.00;;;4.23;;
28920;SDS011;16035;53.594;9.952;2023-08-20T01:11:57;13.13;;;4.55;;
28920;SDS011;16035;53.594;9.952;2023-08-20T01:14:00;8.38;;;4.07;;
28920;SDS011;16035;53.594;9.952;2023-08-20T01:16:01;8.23;;;3.40;;
28920;SDS011;16035;53.594;9.952;2023-08-20T01:18:01;13.13;;;4.53;;
28920;SDS011;16035;53.594;9.952;2023-08-20T01:20:02;9.50;;;4.10;;
28920;SDS011;16035;53.594;9.952;2023-08-20T01:26:48;8.32;;;3.95;;
28920;SDS011;16035;53.594;9.952;2023-08-20T01:28:59;15.23;;;5.20;;
28920;SDS011;16035;53.594;9.952;2023-08-20T01:31:00;8.55;;;3.88;;
28920;SDS011;16035;53.594;9.952;2023-08-20T01:33:01;9.30;;;4.30;;
28920;SDS011;16035;53.594;9.952;2023-08-20T01:35:02;10.13;;;3.85;;
28920;SDS011;16035;53.594;9.952;2023-08-20T01:37:03;7.95;;;3.55;;
28920;SDS011;16035;53.594;9.952;2023-08-20T01:39:03;10.97;;;3.87;;
28920;SDS011;16035;53.594;9.952;2023-08-20T01:41:04;11.70;;;4.15;;
28920;SDS011;16035;53.594;9.952;2023-08-20T01:43:05;8.63;;;4.40;;
28920;SDS011;16035;53.594;9.952;2023-08-20T01:45:05;8.13;;;3.87;;
28920;SDS011;16035;53.594;9.952;2023-08-20T01:47:06;10.90;;;4.45;;
28920;SDS011;16035;53.594;9.952;2023-08-20T01:49:07;6.97;;;4.03;;
28920;SDS011;16035;53.594;9.952;2023-08-20T01:51:07;8.20;;;4.10;;
28920;SDS011;16035;53.594;9.952;2023-08-20T01:53:08;8.35;;;4.60;;
28920;SDS011;16035;53.594;9.952;2023-08-20T01:55:10;6.95;;;4.55;;
28920;SDS011;16035;53.594;9.952;2023-08-20T01:57:11;8.52;;;4.60;;
28920;SDS011;16035;53.594;9.952;2023-08-20T01:59:11;6.97;;;4.43;;
28920;SDS011;16035;53.594;9.952;2023-08-20T02:01:12;7.45;;;4.20;;
28920;SDS011;16035;53.594;9.952;2023-08-20T02:03:13;10.63;;;4.37;;
28920;SDS011;16035;53.594;9.952;2023-08-20T02:05:13;9.87;;;4.23;;
28920;SDS011;16035;53.594;9.952;2023-08-20T02:07:13;8.57;;;4.17;;
28920;SDS011;16035;53.594;9.952;2023-08-20T02:09:14;9.47;;;4.50;;
28920;SDS011;16035;53.594;9.952;2023-08-20T02:11:14;9.97;;;3.77;;
28920;SDS011;16035;53.594;9.952;2023-08-20T02:13:14;5.43;;;3.67;;
28920;SDS011;16035;53.594;9.952;2023-08-20T02:15:15;5.93;;;3.67;;
28920;SDS011;16035;53.594;9.952;2023-08-20T02:17:15;5.83;;;3.47;;
28920;SDS011;16035;53.594;9.952;2023-08-20T02:19:15;9.53;;;3.90;;
28920;SDS011;16035;53.594;9.952;2023-08-20T02:21:16;7.13;;;4.27;;
28920;SDS011;16035;53.594;9.952;2023-08-20T02:23:16;12.00;;;3.80;;
28920;SDS011;16035;53.594;9.952;2023-08-20T02:25:16;10.87;;;3.97;;
28920;SDS011;16035;53.594;9.952;2023-08-20T02:27:16;5.27;;;3.57;;
28920;SDS011;16035;53.594;9.952;2023-08-20T02:29:17;7.57;;;4.07;;
28920;SDS011;16035;53.594;9.952;2023-08-20T02:31:17;7.37;;;3.57;;
28920;SDS011;16035;53.594;9.952;2023-08-20T02:33:18;6.30;;;3.47;;
28920;SDS011;16035;53.594;9.952;2023-08-20T02:35:18;8.33;;;3.57;;
28920;SDS011;16035;53.594;9.952;2023-08-20T02:37:19;10.43;;;4.03;;
28920;SDS011;16035;53.594;9.952;2023-08-20T02:39:20;5.30;;;3.33;;
28920;SDS011;16035;53.594;9.952;2023-08-20T02:41:20;5.43;;;3.80;;
28920;SDS011;16035;53.594;9.952;2023-08-20T02:43:20;14.53;;;4.33;;
28920;SDS011;16035;53.594;9.952;2023-08-20T02:45:21;7.93;;;3.83;;
28920;SDS011;16035;53.594;9.952;2023-08-20T02:47:21;11.17;;;4.70;;
28920;SDS011;16035;53.594;9.952;2023-08-20T02:49:21;11.83;;;4.80;;
28920;SDS011;16035;53.594;9.952;2023-08-20T02:51:22;7.37;;;4.33;;
28920;SDS011;16035;53.594;9.952;2023-08-20T02:53:22;7.85;;;4.20;;
28920;SDS011;16035;53.594;9.952;2023-08-20T02:55:26;7.87;;;4.63;;
28920;SDS011;16035;53.594;9.952;2023-08-20T02:57:26;10.10;;;3.97;;
28920;SDS011;16035;53.594;9.952;2023-08-20T02:59:26;6.40;;;3.87;;
28920;SDS011;16035;53.594;9.952;2023-08-20T03:01:27;6.77;;;4.37;;
28920;SDS011;16035;53.594;9.952;2023-08-20T03:03:27;11.23;;;4.20;;
28920;SDS011;16035;53.594;9.952;2023-08-20T03:05:27;8.17;;;4.00;;
28920;SDS011;16035;53.594;9.952;2023-08-20T03:07:28;8.20;;;4.67;;
28920;SDS011;16035;53.594;9.952;2023-08-20T03:09:28;10.00;;;5.10;;
28920;SDS011;16035;53.594;9.952;2023-08-20T03:11:28;6.57;;;4.70;;
28920;SDS011;16035;53.594;9.952;2023-08-20T03:13:29;15.43;;;6.33;;
28920;SDS011;16035;53.594;9.952;2023-08-20T03:15:29;12.47;;;5.43;;
28920;SDS011;16035;53.594;9.952;2023-08-20T03:17:30;11.63;;;6.05;;
28920;SDS011;16035;53.594;9.952;2023-08-20T03:19:32;14.20;;;6.20;;
28920;SDS011;16035;53.594;9.952;2023-08-20T03:21:34;8.00;;;5.55;;
28920;SDS011;16035;53.594;9.952;2023-08-20T03:23:35;10.83;;;5.87;;
28920;SDS011;16035;53.594;9.952;2023-08-20T03:25:35;11.73;;;6.00;;
28920;SDS011;16035;53.594;9.952;2023-08-20T03:27:36;9.90;;;5.73;;
28920;SDS011;16035;53.594;9.952;2023-08-20T03:29:36;12.33;;;6.60;;
28920;SDS011;16035;53.594;9.952;2023-08-20T03:31:37;9.30;;;5.70;;
28920;SDS011;16035;53.594;9.952;2023-08-20T03:33:37;7.47;;;5.03;;
28920;SDS011;16035;53.594;9.952;2023-08-20T03:35:38;8.60;;;5.83;;
28920;SDS011;16035;53.594;9.952;2023-08-20T03:37:38;9.90;;;5.63;;
28920;SDS011;16035;53.594;9.952;2023-08-20T03:39:39;8.67;;;5.10;;
28920;SDS011;16035;53.594;9.952;2023-08-20T03:41:39;10.00;;;4.80;;
28920;SDS011;16035;53.594;9.952;2023-08-20T03:43:39;10.03;;;5.30;;
28920;SDS011;16035;53.594;9.952;2023-08-20T03:45:40;7.80;;;5.00;;
28920;SDS011;16035;53.594;9.952;2023-08-20T03:47:40;11.23;;;5.53;;
28920;SDS011;16035;53.594;9.952;2023-08-20T03:49:44;6.88;;;4.30;;
28920;SDS011;16035;53.594;9.952;2023-08-20T03:51:44;8.13;;;4.97;;
28920;SDS011;16035;53.594;9.952;2023-08-20T03:53:44;7.93;;;5.67;;
28920;SDS011;16035;53.594;9.952;2023-08-20T03:55:50;7.10;;;5.00;;
28920;SDS011;16035;53.594;9.952;2023-08-20T03:57:50;6.63;;;4.55;;
28920;SDS011;16035;53.594;9.952;2023-08-20T03:59:51;8.33;;;5.57;;
28920;SDS011;16035;53.594;9.952;2023-08-20T04:01:51;9.13;;;4.57;;
28920;SDS011;16035;53.594;9.952;2023-08-20T04:03:51;9.10;;;5.20;;
28920;SDS011;16035;53.594;9.952;2023-08-20T04:05:52;8.03;;;5.40;;
28920;SDS011;16035;53.594;9.952;2023-08-20T04:07:52;7.67;;;5.20;;
28920;SDS011;16035;53.594;9.952;2023-08-20T04:09:52;7.57;;;5.53;;
28920;SDS011;16035;53.594;9.952;2023-08-20T04:11:53;7.53;;;5.03;;
28920;SDS011;16035;53.594;9.952;2023-08-20T04:13:53;6.40;;;4.70;;
28920;SDS011;16035;53.594;9.952;2023-08-20T04:15:53;9.00;;;5.37;;
28920;SDS011;16035;53.594;9.952;2023-08-20T04:17:54;6.77;;;5.13;;
28920;SDS011;16035;53.594;9.952;2023-08-20T04:19:54;9.50;;;5.83;;
28920;SDS011;16035;53.594;9.952;2023-08-20T04:21:54;8.47;;;5.40;;
28920;SDS011;16035;53.594;9.952;2023-08-20T04:23:55;7.70;;;5.60;;
28920;SDS011;16035;53.594;9.952;2023-08-20T04:25:55;10.07;;;5.67;;
28920;SDS011;16035;53.594;9.952;2023-08-20T04:27:55;11.10;;;5.47;;
28920;SDS011;16035;53.594;9.952;2023-08-20T04:29:56;7.83;;;5.43;;
28920;SDS011;16035;53.594;9.952;2023-08-20T04:31:56;10.17;;;6.47;;
28920;SDS011;16035;53.594;9.952;2023-08-20T04:33:56;9.73;;;6.17;;
28920;SDS011;16035;53.594;9.952;2023-08-20T04:35:57;10.87;;;7.37;;
28920;SDS011;16035;53.594;9.952;2023-08-20T04:37:57;9.33;;;6.53;;
28920;SDS011;16035;53.594;9.952;2023-08-20T04:39:58;10.32;;;6.82;;
28920;SDS011;16035;53.594;9.952;2023-08-20T04:41:58;6.80;;;5.77;;
28920;SDS011;16035;53.594;9.952;2023-08-20T04:44:00;10.10;;;5.88;;
28920;SDS011;16035;53.594;9.952;2023-08-20T04:46:00;8.97;;;6.37;;
28920;SDS011;16035;53.594;9.952;2023-08-20T04:48:00;8.83;;;6.40;;
28920;SDS011;16035;53.594;9.952;2023-08-20T04:50:01;9.40;;;5.73;;
28920;SDS011;16035;53.594;9.952;2023-08-20T04:52:01;8.00;;;5.57;;
28920;SDS011;16035;53.594;9.952;2023-08-20T04:54:02;7.23;;;4.93;;
28920;SDS011;16035;53.594;9.952;2023-08-20T04:56:02;7.63;;;5.17;;
28920;SDS011;16035;53.594;9.952;2023-08-20T04:58:03;8.20;;;5.43;;
28920;SDS011;16035;53.594;9.952;2023-08-20T05:00:03;7.53;;;5.53;;
28920;SDS011;16035;53.594;9.952;2023-08-20T05:02:05;5.57;;;4.60;;
28920;SDS011;16035;53.594;9.952;2023-08-20T05:04:05;5.80;;;4.50;;
28920;SDS011;16035;53.594;9.952;2023-08-20T05:06:06;6.10;;;4.47;;
28920;SDS011;16035;53.594;9.952;2023-08-20T05:08:06;5.27;;;3.47;;
28920;SDS011;16035;53.594;9.952;2023-08-20T05:10:07;5.25;;;3.60;;
28920;SDS011;16035;53.594;9.952;2023-08-20T05:12:08;4.53;;;3.72;;
28920;SDS011;16035;53.594;9.952;2023-08-20T05:14:09;5.27;;;3.83;;
28920;SDS011;16035;53.594;9.952;2023-08-20T05:16:09;3.90;;;3.17;;
28920;SDS011;16035;53.594;9.952;2023-08-20T05:18:10;4.90;;;3.53;;
28920;SDS011;16035;53.594;9.952;2023-08-20T05:20:11;4.13;;;3.47;;
28920;SDS011;16035;53.594;9.952;2023-08-20T05:22:11;4.77;;;3.93;;
28920;SDS011;16035;53.594;9.952;2023-08-20T05:24:12;6.07;;;3.83;;
28920;SDS011;16035;53.594;9.952;2023-08-20T05:26:12;7.80;;;4.53;;
28920;SDS011;16035;53.594;9.952;2023-08-20T05:28:12;6.13;;;4.50;;
28920;SDS011;16035;53.594;9.952;2023-08-20T05:30:12;7.07;;;4.23;;
28920;SDS011;16035;53.594;9.952;2023-08-20T05:32:13;5.30;;;3.83;;
28920;SDS011;16035;53.594;9.952;2023-08-20T05:34:14;9.63;;;4.63;;
28920;SDS011;16035;53.594;9.952;2023-08-20T05:36:15;10.10;;;3.90;;
28920;SDS011;16035;53.594;9.952;2023-08-20T05:38:15;5.63;;;3.90;;
28920;SDS011;16035;53.594;9.952;2023-08-20T05:40:16;7.97;;;4.20;;
28920;SDS011;16035;53.594;9.952;2023-08-20T05:42:16;8.33;;;4.20;;
28920;SDS011;16035;53.594;9.952;2023-08-20T05:44:16;7.77;;;4.33;;
28920;SDS011;16035;53.594;9.952;2023-08-20T05:46:17;5.17;;;4.27;;
28920;SDS011;16035;53.594;9.952;2023-08-20T05:48:17;6.73;;;4.93;;
28920;SDS011;16035;53.594;9.952;2023-08-20T05:50:18;7.23;;;4.97;;
28920;SDS011;16035;53.594;9.952;2023-08-20T05:52:18;6.47;;;4.60;;
28920;SDS011;16035;53.594;9.952;2023-08-20T05:54:18;9.00;;;4.37;;
28920;SDS011;16035;53.594;9.952;2023-08-20T05:56:19;9.27;;;4.43;;
28920;SDS011;16035;53.594;9.952;2023-08-20T05:58:19;7.37;;;4.60;;
28920;SDS011;16035;53.594;9.952;2023-08-20T06:00:19;7.23;;;4.13;;
28920;SDS011;16035;53.594;9.952;2023-08-20T06:02:20;7.40;;;4.63;;
28920;SDS011;16035;53.594;9.952;2023-08-20T06:04:20;8.67;;;5.00;;
28920;SDS011;16035;53.594;9.952;2023-08-20T06:06:21;10.90;;;5.00;;
28920;SDS011;16035;53.594;9.952;2023-08-20T06:08:22;9.93;;;5.70;;
28920;SDS011;16035;53.594;9.952;2023-08-20T06:10:22;10.30;;;5.83;;
28920;SDS011;16035;53.594;9.952;2023-08-20T06:12:23;13.30;;;5.20;;
28920;SDS011;16035;53.594;9.952;2023-08-20T06:14:23;10.90;;;6.68;;
28920;SDS011;16035;53.594;9.952;2023-08-20T06:16:24;8.90;;;6.20;;
28920;SDS011;16035;53.594;9.952;2023-08-20T06:18:24;9.83;;;6.00;;
28920;SDS011;16035;53.594;9.952;2023-08-20T06:20:24;13.77;;;6.53;;
28920;SDS011;16035;53.594;9.952;2023-08-20T06:22:25;11.17;;;6.03;;
28920;SDS011;16035;53.594;9.952;2023-08-20T06:24:25;15.40;;;6.77;;
28920;SDS011;16035;53.594;9.952;2023-08-20T06:26:26;14.45;;;7.55;;
28920;SDS011;16035;53.594;9.952;2023-08-20T06:28:26;14.77;;;7.27;;
28920;SDS011;16035;53.594;9.952;2023-08-20T06:30:26;11.00;;;7.17;;
28920;SDS011;16035;53.594;9.952;2023-08-20T06:32:27;14.10;;;7.37;;
28920;SDS011;16035;53.594;9.952;2023-08-20T06:34:27;14.87;;;7.63;;
28920;SDS011;16035;53.594;9.952;2023-08-20T06:36:28;13.82;;;8.60;;
28920;SDS011;16035;53.594;9.952;2023-08-20T06:38:29;14.70;;;8.33;;
28920;SDS011;16035;53.594;9.952;2023-08-20T06:40:29;13.87;;;7.87;;
28920;SDS011;16035;53.594;9.952;2023-08-20T06:42:30;18.33;;;7.85;;
28920;SDS011;16035;53.594;9.952;2023-08-20T06:44:30;15.47;;;7.47;;
28920;SDS011;16035;53.594;9.952;2023-08-20T06:46:31;16.23;;;7.43;;
28920;SDS011;16035;53.594;9.952;2023-08-20T06:48:31;14.90;;;7.73;;
28920;SDS011;16035;53.594;9.952;2023-08-20T06:50:31;18.50;;;8.40;;
28920;SDS011;16035;53.594;9.952;2023-08-20T06:52:32;13.30;;;7.03;;
28920;SDS011;16035;53.594;9.952;2023-08-20T06:54:32;17.13;;;8.07;;
28920;SDS011;16035;53.594;9.952;2023-08-20T06:56:33;18.47;;;7.67;;
28920;SDS011;16035;53.594;9.952;2023-08-20T06:58:33;14.70;;;7.27;;
28920;SDS011;16035;53.594;9.952;2023-08-20T07:00:33;16.23;;;8.27;;
28920;SDS011;16035;53.594;9.952;2023-08-20T07:02:34;13.20;;;7.03;;
28920;SDS011;16035;53.594;9.952;2023-08-20T07:04:34;14.60;;;7.83;;
28920;SDS011;16035;53.594;9.952;2023-08-20T07:06:40;14.50;;;7.63;;
28920;SDS011;16035;53.594;9.952;2023-08-20T07:08:41;12.35;;;6.35;;
28920;SDS011;16035;53.594;9.952;2023-08-20T07:10:42;12.30;;;7.50;;
28920;SDS011;16035;53.594;9.952;2023-08-20T07:12:42;14.07;;;6.80;;
28920;SDS011;16035;53.594;9.952;2023-08-20T07:14:43;11.53;;;5.33;;
28920;SDS011;16035;53.594;9.952;2023-08-20T07:16:43;12.33;;;5.27;;
28920;SDS011;16035;53.594;9.952;2023-08-20T07:18:43;9.50;;;5.13;;
28920;SDS011;16035;53.594;9.952;2023-08-20T07:20:44;12.53;;;5.43;;
28920;SDS011;16035;53.594;9.952;2023-08-20T07:22:44;6.88;;;4.72;;
28920;SDS011;16035;53.594;9.952;2023-08-20T07:24:45;4.60;;;3.87;;
28920;SDS011;16035;53.594;9.952;2023-08-20T07:26:45;7.57;;;4.57;;
28920;SDS011;16035;53.594;9.952;2023-08-20T07:28:45;5.67;;;3.83;;
28920;SDS011;16035;53.594;9.952;2023-08-20T07:30:58;8.60;;;4.00;;
28920;SDS011;16035;53.594;9.952;2023-08-20T07:32:58;8.00;;;3.90;;
28920;SDS011;16035;53.594;9.952;2023-08-20T07:34:58;7.00;;;4.43;;
28920;SDS011;16035;53.594;9.952;2023-08-20T07:36:59;6.17;;;4.10;;
28920;SDS011;16035;53.594;9.952;2023-08-20T07:39:00;7.15;;;3.88;;
28920;SDS011;16035;53.594;9.952;2023-08-20T07:41:00;7.25;;;4.28;;
28920;SDS011;16035;53.594;9.952;2023-08-20T07:43:01;6.60;;;4.30;;
28920;SDS011;16035;53.594;9.952;2023-08-20T07:45:02;10.68;;;5.13;;
28920;SDS011;16035;53.594;9.952;2023-08-20T07:47:02;9.10;;;4.68;;
28920;SDS011;16035;53.594;9.952;2023-08-20T07:49:03;7.63;;;4.20;;
28920;SDS011;16035;53.594;9.952;2023-08-20T07:51:03;9.97;;;4.67;;
28920;SDS011;16035;53.594;9.952;2023-08-20T07:53:04;9.43;;;5.13;;
28920;SDS011;16035;53.594;9.952;2023-08-20T07:55:04;6.47;;;4.23;;
28920;SDS011;16035;53.594;9.952;2023-08-20T07:57:04;6.80;;;3.47;;
28920;SDS011;16035;53.594;9.952;2023-08-20T07:59:05;6.17;;;3.93;;
28920;SDS011;16035;53.594;9.952;2023-08-20T08:01:05;8.03;;;4.60;;
28920;SDS011;16035;53.594;9.952;2023-08-20T08:03:06;9.33;;;3.80;;
28920;SDS011;16035;53.594;9.952;2023-08-20T08:05:06;7.23;;;3.73;;
28920;SDS011;16035;53.594;9.952;2023-08-20T08:07:07;8.85;;;4.03;;
28920;SDS011;16035;53.594;9.952;2023-08-20T08:09:26;6.45;;;3.75;;
28920;SDS011;16035;53.594;9.952;2023-08-20T08:11:28;5.47;;;3.15;;
28920;SDS011;16035;53.594;9.952;2023-08-20T08:13:28;6.20;;;3.13;;
28920;SDS011;16035;53.594;9.952;2023-08-20T08:15:29;5.60;;;3.37;;
28920;SDS011;16035;53.594;9.952;2023-08-20T08:17:29;8.17;;;2.60;;
28920;SDS011;16035;53.594;9.952;2023-08-20T08:19:29;7.80;;;2.93;;
28920;SDS011;16035;53.594;9.952;2023-08-20T08:21:30;5.87;;;2.70;;
28920;SDS011;16035;53.594;9.952;2023-08-20T08:23:30;6.80;;;2.67;;
28920;SDS011;16035;53.594;9.952;2023-08-20T08:25:31;3.87;;;2.63;;
28920;SDS011;16035;53.594;9.952;2023-08-20T08:27:31;4.87;;;2.30;;
28920;SDS011;16035;53.594;9.952;2023-08-20T08:29:31;6.17;;;2.70;;
28920;SDS011;16035;53.594;9.952;2023-08-20T08:31:32;4.63;;;2.17;;
28920;SDS011;16035;53.594;9.952;2023-08-20T08:33:33;5.20;;;2.22;;
28920;SDS011;16035;53.594;9.952;2023-08-20T08:35:33;4.93;;;1.70;;
28920;SDS011;16035;53.594;9.952;2023-08-20T08:37:33;3.63;;;1.83;;
28920;SDS011;16035;53.594;9.952;2023-08-20T08:39:34;4.50;;;1.90;;
28920;SDS011;16035;53.594;9.952;2023-08-20T08:41:35;4.50;;;2.20;;
28920;SDS011;16035;53.594;9.952;2023-08-20T08:43:38;3.33;;;2.03;;
28920;SDS011;16035;53.594;9.952;2023-08-20T08:45:39;5.55;;;1.80;;
28920;SDS011;16035;53.594;9.952;2023-08-20T08:49:41;5.33;;;1.97;;
28920;SDS011;16035;53.594;9.952;2023-08-20T08:51:44;4.28;;;1.88;;
28920;SDS011;16035;53.594;9.952;2023-08-20T08:53:46;3.65;;;2.08;;
28920;SDS011;16035;53.594;9.952;2023-08-20T08:55:46;5.95;;;2.15;;
28920;SDS011;16035;53.594;9.952;2023-08-20T08:57:47;4.27;;;2.13;;
28920;SDS011;16035;53.594;9.952;2023-08-20T08:59:47;5.57;;;1.97;;
28920;SDS011;16035;53.594;9.952;2023-08-20T09:01:47;3.95;;;1.83;;
28920;SDS011;16035;53.594;9.952;2023-08-20T09:03:48;5.00;;;2.15;;
28920;SDS011;16035;53.594;9.952;2023-08-20T09:07:56;4.38;;;1.85;;
28920;SDS011;16035;53.594;9.952;2023-08-20T09:09:58;6.13;;;2.08;;
28920;SDS011;16035;53.594;9.952;2023-08-20T09:12:00;3.30;;;1.80;;
28920;SDS011;16035;53.594;9.952;2023-08-20T09:16:02;6.30;;;1.77;;
28920;SDS011;16035;53.594;9.952;2023-08-20T09:18:08;3.45;;;2.13;;
28920;SDS011;16035;53.594;9.952;2023-08-20T09:20:10;4.22;;;2.08;;
28920;SDS011;16035;53.594;9.952;2023-08-20T09:24:15;6.78;;;1.60;;
28920;SDS011;16035;53.594;9.952;2023-08-20T09:28:15;3.93;;;1.80;;
28920;SDS011;16035;53.594;9.952;2023-08-20T09:32:22;7.95;;;2.40;;
28920;SDS011;16035;53.594;9.952;2023-08-20T09:34:23;3.33;;;1.80;;
28920;SDS011;16035;53.594;9.952;2023-08-20T09:38:36;5.50;;;1.52;;
28920;SDS011;16035;53.594;9.952;2023-08-20T09:40:38;5.45;;;1.75;;
28920;SDS011;16035;53.594;9.952;2023-08-20T09:44:40;5.73;;;1.40;;
28920;SDS011;16035;53.594;9.952;2023-08-20T09:46:42;6.78;;;2.70;;
28920;SDS011;16035;53.594;9.952;2023-08-20T09:48:43;6.15;;;2.33;;
28920;SDS011;16035;53.594;9.952;2023-08-20T09:50:48;5.53;;;1.77;;
28920;SDS011;16035;53.594;9.952;2023-08-20T09:52:56;10.05;;;2.72;;
28920;SDS011;16035;53.594;9.952;2023-08-20T09:55:13;6.50;;;2.58;;
28920;SDS011;16035;53.594;9.952;2023-08-20T09:57:23;6.40;;;2.20;;
28920;SDS011;16035;53.594;9.952;2023-08-20T09:59:31;4.47;;;1.80;;
28920;SDS011;16035;53.594;9.952;2023-08-20T10:01:32;5.80;;;2.58;;
28920;SDS011;16035;53.594;9.952;2023-08-20T10:05:33;7.60;;;1.97;;
28920;SDS011;16035;53.594;9.952;2023-08-20T10:09:34;3.23;;;2.13;;
28920;SDS011;16035;53.594;9.952;2023-08-20T10:11:35;6.68;;;2.20;;
28920;SDS011;16035;53.594;9.952;2023-08-20T10:13:37;4.03;;;1.90;;
28920;SDS011;16035;53.594;9.952;2023-08-20T10:17:38;2.23;;;1.43;;
28920;SDS011;16035;53.594;9.952;2023-08-20T10:19:40;6.78;;;2.00;;
28920;SDS011;16035;53.594;9.952;2023-08-20T10:23:49;5.18;;;1.65;;
28920;SDS011;16035;53.594;9.952;2023-08-20T10:25:50;3.72;;;1.98;;
28920;SDS011;16035;53.594;9.952;2023-08-20T10:27:52;4.93;;;2.38;;
28920;SDS011;16035;53.594;9.952;2023-08-20T10:29:53;4.95;;;1.85;;
28920;SDS011;16035;53.594;9.952;2023-08-20T10:31:54;4.60;;;1.75;;
28920;SDS011;16035;53.594;9.952;2023-08-20T10:33:56;4.15;;;1.70;;
28920;SDS011;16035;53.594;9.952;2023-08-20T10:35:58;4.63;;;1.70;;
28920;SDS011;16035;53.594;9.952;2023-08-20T10:38:14;2.58;;;1.65;;
28920;SDS011;16035;53.594;9.952;2023-08-20T10:40:46;4.22;;;1.77;;
28920;SDS011;16035;53.594;9.952;2023-08-20T10:42:56;2.80;;;1.58;;
28920;SDS011;16035;53.594;9.952;2023-08-20T10:45:08;4.68;;;1.88;;
28920;SDS011;16035;53.594;9.952;2023-08-20T10:47:08;4.75;;;1.92;;
28920;SDS011;16035;53.594;9.952;2023-08-20T10:53:24;4.82;;;1.45;;
28920;SDS011;16035;53.594;9.952;2023-08-20T10:55:25;2.50;;;1.52;;
28920;SDS011;16035;53.594;9.952;2023-08-20T10:59:33;8.23;;;1.60;;
28920;SDS011;16035;53.594;9.952;2023-08-20T11:01:34;3.67;;;1.48;;
28920;SDS011;16035;53.594;9.952;2023-08-20T11:05:36;2.93;;;1.20;;
28920;SDS011;16035;53.594;9.952;2023-08-20T11:09:36;3.83;;;1.73;;
28920;SDS011;16035;53.594;9.952;2023-08-20T11:11:39;3.60;;;1.50;;
28920;SDS011;16035;53.594;9.952;2023-08-20T11:13:41;2.92;;;1.48;;
28920;SDS011;16035;53.594;9.952;2023-08-20T11:15:42;8.73;;;1.85;;
28920;SDS011;16035;53.594;9.952;2023-08-20T11:17:46;2.97;;;1.38;;
28920;SDS011;16035;53.594;9.952;2023-08-20T11:19:48;5.07;;;1.70;;
28920;SDS011;16035;53.594;9.952;2023-08-20T11:23:49;3.58;;;1.63;;
28920;SDS011;16035;53.594;9.952;2023-08-20T11:25:50;2.67;;;1.50;;
28920;SDS011;16035;53.594;9.952;2023-08-20T11:27:50;5.05;;;1.45;;
28920;SDS011;16035;53.594;9.952;2023-08-20T11:29:50;3.53;;;1.63;;
28920;SDS011;16035;53.594;9.952;2023-08-20T11:31:53;8.05;;;1.75;;
28920;SDS011;16035;53.594;9.952;2023-08-20T11:33:56;3.95;;;1.60;;
28920;SDS011;16035;53.594;9.952;2023-08-20T11:35:57;6.07;;;1.90;;
28920;SDS011;16035;53.594;9.952;2023-08-20T11:37:57;5.47;;;1.55;;
28920;SDS011;16035;53.594;9.952;2023-08-20T11:39:58;3.30;;;1.30;;
28920;SDS011;16035;53.594;9.952;2023-08-20T11:41:59;3.15;;;1.33;;
28920;SDS011;16035;53.594;9.952;2023-08-20T11:44:00;3.72;;;1.55;;
28920;SDS011;16035;53.594;9.952;2023-08-20T11:46:01;4.28;;;1.42;;
28920;SDS011;16035;53.594;9.952;2023-08-20T11:48:01;4.63;;;1.77;;
28920;SDS011;16035;53.594;9.952;2023-08-20T11:50:02;3.23;;;1.60;;
28920;SDS011;16035;53.594;9.952;2023-08-20T11:52:04;5.47;;;1.67;;
28920;SDS011;16035;53.594;9.952;2023-08-20T11:54:09;2.97;;;1.83;;
28920;SDS011;16035;53.594;9.952;2023-08-20T11:56:13;3.75;;;1.52;;
28920;SDS011;16035;53.594;9.952;2023-08-20T11:58:13;3.60;;;1.38;;
28920;SDS011;16035;53.594;9.952;2023-08-20T12:00:23;3.25;;;1.58;;
28920;SDS011;16035;53.594;9.952;2023-08-20T12:02:25;4.90;;;1.55;;
28920;SDS011;16035;53.594;9.952;2023-08-20T12:04:28;5.97;;;1.65;;
28920;SDS011;16035;53.594;9.952;2023-08-20T12:06:29;2.58;;;1.38;;
28920;SDS011;16035;53.594;9.952;2023-08-20T12:08:37;5.55;;;1.40;;
28920;SDS011;16035;53.594;9.952;2023-08-20T12:10:41;4.45;;;1.30;;
28920;SDS011;16035;53.594;9.952;2023-08-20T12:12:43;3.00;;;1.30;;
28920;SDS011;16035;53.594;9.952;2023-08-20T12:14:43;4.20;;;1.25;;
28920;SDS011;16035;53.594;9.952;2023-08-20T12:16:44;8.00;;;2.13;;
28920;SDS011;16035;53.594;9.952;2023-08-20T12:18:47;3.55;;;1.65;;
28920;SDS011;16035;53.594;9.952;2023-08-20T12:20:48;5.25;;;1.42;;
28920;SDS011;16035;53.594;9.952;2023-08-20T12:22:48;4.97;;;1.47;;
28920;SDS011;16035;53.594;9.952;2023-08-20T12:24:48;3.85;;;1.52;;
28920;SDS011;16035;53.594;9.952;2023-08-20T12:26:51;2.95;;;1.45;;
28920;SDS011;16035;53.594;9.952;2023-08-20T12:30:53;5.97;;;1.77;;
28920;SDS011;16035;53.594;9.952;2023-08-20T12:32:53;5.10;;;1.70;;
28920;SDS011;16035;53.594;9.952;2023-08-20T12:34:53;4.80;;;1.60;;
28920;SDS011;16035;53.594;9.952;2023-08-20T12:36:54;3.00;;;1.52;;
28920;SDS011;16035;53.594;9.952;2023-08-20T12:38:54;4.10;;;1.50;;
28920;SDS011;16035;53.594;9.952;2023-08-20T12:40:55;5.30;;;1.63;;
28920;SDS011;16035;53.594;9.952;2023-08-20T12:42:56;4.93;;;1.43;;
28920;SDS011;16035;53.594;9.952;2023-08-20T12:44:56;3.60;;;1.63;;
28920;SDS011;16035;53.594;9.952;2023-08-20T12:46:56;7.70;;;1.57;;
28920;SDS011;16035;53.594;9.952;2023-08-20T12:48:57;4.00;;;1.70;;
28920;SDS011;16035;53.594;9.952;2023-08-20T12:50:57;2.93;;;1.70;;
28920;SDS011;16035;53.594;9.952;2023-08-20T12:52:58;1.95;;;1.30;;
28920;SDS011;16035;53.594;9.952;2023-08-20T12:54:58;4.68;;;1.77;;
28920;SDS011;16035;53.594;9.952;2023-08-20T12:56:59;4.53;;;1.70;;
28920;SDS011;16035;53.594;9.952;2023-08-20T12:58:59;3.63;;;1.03;;
28920;SDS011;16035;53.594;9.952;2023-08-20T13:00:59;2.70;;;1.63;;